FW0756 Weather Reports


time (UTC)temp
C
wind
direction
speed
KPH
gust
KPH
rain 1hr
cm
rain 24hr
cm
rain mn
cm
humidity
%
barometer
mb
20200229075217 11 0.0 0.0 0.00 0.00 0.00 79 1017.4
20200229074218 11 67 1.6 3.2 0.00 0.00 0.00 79 1017.4
20200229073217 11 67 1.6 3.2 0.00 0.00 0.00 79 1017.8
20200229072217 11 67 1.6 3.2 0.00 0.00 0.00 79 1017.9
20200229071218 10 67 1.6 3.2 0.00 0.00 0.00 78 1018.0
20200229070218 10 0.0 0.0 0.00 0.00 0.00 77 1018.3
20200229065221 10 0.0 0.0 0.00 0.00 0.00 77 1018.0
20200229064216 10 0.0 0.0 0.00 0.00 0.00 76 1018.1
20200229063216 10 0.0 0.0 0.00 0.00 0.00 77 1018.3
20200229062216 10 0.0 0.0 0.00 0.00 0.00 78 1018.3
20200229061216 10 0.0 0.0 0.00 0.00 0.00 79 1018.3
20200229060217 10 67 1.6 3.2 0.00 0.00 0.00 78 1018.4
20200229055217 10 0.0 1.6 0.00 0.00 0.00 76 1018.2
20200229054216 10 67 1.6 3.2 0.00 0.00 0.00 75 1018.1
20200229053216 11 0.0 1.6 0.00 0.00 0.00 74 1018.2
20200229052217 11 0.0 0.0 0.00 0.00 0.00 74 1018.3
20200229051216 11 0.0 0.0 0.00 0.00 0.00 72 1018.3
20200229050217 12 0.0 0.0 0.00 0.00 0.00 73 1018.1
20200229045216 12 67 1.6 3.2 0.00 0.00 0.00 73 1017.8
20200229044216 12 0.0 0.0 0.00 0.00 0.00 70 1017.6
20200229043217 12 0.0 1.6 0.00 0.00 0.00 69 1017.6
20200229042216 13 0.0 0.0 0.00 0.00 0.00 69 1017.7
20200229041216 13 112 1.6 3.2 0.00 0.00 0.00 68 1017.7
20200229040216 13 112 1.6 1.6 0.00 0.00 0.00 67 1017.8
20200229035216 14 112 1.6 1.6 0.00 0.00 0.00 65 1017.7
20200229034216 15 225 1.6 1.6 0.00 0.00 0.00 63 1017.9
20200229033216 16 0.0 1.6 0.00 0.00 0.00 63 1017.8
20200229032216 16 225 1.6 1.6 0.00 0.00 0.00 61 1017.8
20200229031216 16 225 3.2 3.2 0.00 0.00 0.00 59 1017.9
20200229030216 17 202 4.8 6.4 0.00 0.00 0.00 57 1017.9
20200229025216 17 225 4.8 6.4 0.00 0.00 0.00 56 1017.8
20200229024216 18 225 4.8 4.8 0.00 0.00 0.00 53 1017.6
20200229023216 18 225 4.8 6.4 0.00 0.00 0.00 48 1017.5
20200229022216 18 202 1.6 3.2 0.00 0.00 0.00 45 1017.3
20200229021215 20 202 3.2 4.8 0.00 0.00 0.00 44 1017.2
20200229020218 20 202 3.2 4.8 0.00 0.00 0.00 43 1017.3
20200229015216 20 202 3.2 4.8 0.00 0.00 0.00 40 1017.1
20200229014216 21 202 3.2 3.2 0.00 0.00 0.00 37 1017.1
20200229013216 22 0.0 1.6 0.00 0.00 0.00 35 1017.0
20200229012216 22 202 3.2 4.8 0.00 0.00 0.00 33 1017.2
20200229011216 23 202 3.2 4.8 0.00 0.00 0.00 30 1017.3
20200229010216 23 202 4.8 8.0 0.00 0.00 0.00 28 1017.2
20200229005216 24 202 4.8 6.4 0.00 0.00 0.00 26 1017.3
20200229004216 25 225 4.8 6.4 0.00 0.00 0.00 25 1017.3
20200229003216 25 202 6.4 8.0 0.00 0.00 0.00 25 1017.2
20200229002215 25 180 6.4 8.0 0.00 0.00 0.00 24 1017.2
20200229001215 25 202 9.7 12.9 0.00 0.00 0.00 24 1017.4
20200229000216 25 247 6.4 8.0 0.00 0.00 0.00 23 1017.3
20200228235216 25 180 6.4 8.0 0.00 0.00 0.00 23 1017.2
20200228234216 25 247 8.0 12.9 0.00 0.00 0.00 21 1017.3
20200228233216 25 202 8.0 11.3 0.00 0.00 0.00 22 1017.4
20200228232216 25 202 8.0 9.7 0.00 0.00 0.00 21 1017.7
20200228231216 25 202 11.3 17.7 0.00 0.00 0.00 22 1017.8
20200228230216 25 180 11.3 19.3 0.00 0.00 0.00 22 1017.8
20200228225216 25 225 11.3 17.7 0.00 0.00 0.00 23 1018.0
20200228224215 25 202 12.9 16.1 0.00 0.00 0.00 23 1017.9
20200228223217 26 202 17.7 25.7 0.00 0.00 0.00 22 1018.1
20200228222215 26 225 16.1 20.9 0.00 0.00 0.00 23 1017.9
20200228221215 27 202 17.7 24.1 0.00 0.00 0.00 22 1017.9
20200228220216 28 202 14.5 22.5 0.00 0.00 0.00 19 1017.8
20200228215215 28 225 11.3 17.7 0.00 0.00 0.00 20 1017.7
20200228214216 27 247 12.9 17.7 0.00 0.00 0.00 20 1017.6
20200228213215 27 225 17.7 25.7 0.00 0.00 0.00 21 1017.7
20200228212217 28 202 12.9 19.3 0.00 0.00 0.00 21 1017.5
20200228211216 28 180 8.0 11.3 0.00 0.00 0.00 21 1017.4
20200228210215 28 247 11.3 19.3 0.00 0.00 0.00 21 1017.4
20200228205216 28 202 9.7 11.3 0.00 0.00 0.00 20 1017.2
20200228204216 28 202 9.7 12.9 0.00 0.00 0.00 20 1017.2
20200228203215 27 180 8.0 16.1 0.00 0.00 0.00 23 1017.1
20200228202216 27 157 8.0 11.3 0.00 0.00 0.00 22 1017.1
20200228201216 27 270 3.2 3.2 0.00 0.00 0.00 20 1017.4
20200228200217 27 270 4.8 9.7 0.00 0.00 0.00 19 1017.7
20200228195215 26 247 8.0 12.9 0.00 0.00 0.00 20 1018.1
20200228194215 26 315 4.8 11.3 0.00 0.00 0.00 22 1018.1
20200228193256 26 0.0 0.0 0.00 0.00 0.00 21 1018.3
20200228192615 26 270 4.8 11.3 0.00 0.00 0.00 21 1018.3
20200228191615 26 247 3.2 8.0 0.00 0.00 0.00 21 1018.6
20200228190616 25 225 8.0 11.3 0.00 0.00 0.00 22 1018.8
20200228185615 25 202 8.0 16.1 0.00 0.00 0.00 23 1019.0
20200228184616 25 247 11.3 16.1 0.00 0.00 0.00 23 1019.2
20200228183615 24 225 9.7 14.5 0.00 0.00 0.00 22 1019.1
20200228182615 24 225 9.7 11.3 0.00 0.00 0.00 23 1019.1
20200228181615 24 202 4.8 8.0 0.00 0.00 0.00 23 1019.0
20200228180616 24 90 11.3 12.9 0.00 0.00 0.00 21 1019.3
20200228175615 23 67 14.5 19.3 0.00 0.00 0.00 20 1019.2
20200228174616 23 67 14.5 17.7 0.00 0.00 0.00 20 1019.2
20200228173615 23 67 12.9 19.3 0.00 0.00 0.00 20 1019.2
20200228172617 23 90 14.5 16.1 0.00 0.00 0.00 23 1019.0
20200228171615 23 67 16.1 19.3 0.00 0.00 0.00 23 1019.2
20200228170616 21 67 9.7 14.5 0.00 0.00 0.00 29 1019.1
20200228165617 20 90 11.3 16.1 0.00 0.00 0.00 31 1019.1
20200228164617 19 90 11.3 17.7 0.00 0.00 0.00 32 1018.9
20200228163617 18 67 11.3 14.5 0.00 0.00 0.00 35 1018.8
20200228162617 18 67 8.0 11.3 0.00 0.00 0.00 33 1018.8
20200228161617 18 67 11.3 16.1 0.00 0.00 0.00 33 1018.8
20200228160617 18 67 12.9 17.7 0.00 0.00 0.00 33 1018.6
20200228155617 18 67 11.3 14.5 0.00 0.00 0.00 33 1018.7
20200228154617 18 90 14.5 17.7 0.00 0.00 0.00 33 1018.7
20200228153618 17 90 11.3 16.1 0.00 0.00 0.00 35 1018.6
20200228152619 16 90 9.7 17.7 0.00 0.00 0.00 37 1018.4
20200228151617 15 90 11.3 14.5 0.00 0.00 0.00 39 1018.4
20200228150617 15 90 6.4 11.3 0.00 0.00 0.00 42 1018.2
20200228145617 14 90 8.0 11.3 0.00 0.00 0.00 44 1018.2
20200228144617 13 90 3.2 4.8 0.00 0.00 0.00 47 1018.1
20200228143617 12 90 4.8 6.4 0.00 0.00 0.00 50 1017.9
20200228142622 11 0.0 1.6 0.00 0.00 0.00 55 1017.9
20200228141617 11 0.0 0.0 0.00 0.00 0.00 56 1017.7
20200228140617 11 0.0 1.6 0.00 0.00 0.00 58 1017.5
20200228135617 11 0.0 0.0 0.00 0.00 0.00 59 1017.5
20200228134617 11 0.0 0.0 0.00 0.00 0.00 59 1017.3
20200228133617 11 180 1.6 1.6 0.00 0.00 0.00 57 1017.3
20200228132618 11 180 1.6 1.6 0.00 0.00 0.00 59 1017.3
20200228131617 11 180 1.6 1.6 0.00 0.00 0.00 64 1017.4
20200228130618 11 0.0 0.0 0.00 0.00 0.00 62 1017.6
20200228125617 11 180 1.6 1.6 0.00 0.00 0.00 60 1017.4
20200228124617 10 0.0 1.6 0.00 0.00 0.00 60 1017.3
20200228123617 10 0.0 0.0 0.00 0.00 0.00 64 1017.3
20200228122617 11 0.0 0.0 0.00 0.00 0.00 66 1017.3
20200228121617 11 0.0 0.0 0.00 0.00 0.00 63 1017.3
20200228120617 11 0.0 0.0 0.00 0.00 0.00 61 1017.3
20200228115617 11 0.0 0.0 0.00 0.00 0.00 62 1017.2
20200228114617 11 0.0 0.0 0.00 0.00 0.00 60 1017.3
20200228113622 11 0.0 0.0 0.00 0.00 0.00 63 1017.3
20200228112617 12 0.0 0.0 0.00 0.00 0.00 61 1017.1
20200228111617 12 0.0 0.0 0.00 0.00 0.00 59 1017.3
20200228110617 12 0.0 0.0 0.00 0.00 0.00 56 1017.3
20200228105616 12 180 1.6 3.2 0.00 0.00 0.00 58 1017.4
20200228104617 11 0.0 0.0 0.00 0.00 0.00 58 1017.3
20200228103617 11 0.0 0.0 0.00 0.00 0.00 60 1017.4
20200228102617 11 0.0 0.0 0.00 0.00 0.00 58 1017.3
20200228101617 12 0.0 0.0 0.00 0.00 0.00 58 1017.2
20200228100616 12 0.0 0.0 0.00 0.00 0.00 56 1017.1
20200228095617 12 0.0 0.0 0.00 0.00 0.00 60 1017.1
20200228094617 12 0.0 0.0 0.00 0.00 0.00 58 1016.9
20200228093617 12 0.0 1.6 0.00 0.00 0.00 55 1016.9
20200228092617 12 67 1.6 3.2 0.00 0.00 0.00 54 1017.0
20200228091617 11 0.0 0.0 0.00 0.00 0.00 57 1016.9
20200228090622 11 0.0 0.0 0.00 0.00 0.00 58 1016.9
20200228085617 11 0.0 0.0 0.00 0.00 0.00 57 1017.1
20200228084617 11 0.0 0.0 0.00 0.00 0.00 56 1017.2
20200228083617 11 0.0 0.0 0.00 0.00 0.00 59 1017.4
20200228082616 11 0.0 0.0 0.00 0.00 0.00 57 1017.7
20200228081617 11 0.0 0.0 0.00 0.00 0.00 56 1017.7
20200228080616 11 0.0 0.0 0.00 0.00 0.00 57 1017.9